Acuna, Argentina
Current Conditions -  °F | °C
As of 6:00 AM on Friday 31 Oct 2014 (Local Time) from SARL Reporting Station
Clear Clear  
Wind Chill: 66°   Ceiling: Unl
Heat Index: 66°   Visibility: 6mi
Dew Point: 64°   Wind: 12mph
Humidity: 94%   Direction: 90°E
Pressure: 29.83"   Gusts: NA
Location:  29.92°S, 57.97°W
Report Text: SARL 310900Z 09010KT CAVOK 19/18 Q1010
Loading
Personal Weather Stations






























Interactive Weather Map
Tropical Storm Tracking
New forecast layout! Learn more

10-Day Weather Forecast

Advertisements
Track Severe Weather on mobile